Nikol'Sk, Russia
Current Conditions -  °F | °C
As of 11:00 PM on Sunday 25 Jan 2015 (Local Time) from UWGG Reporting Station
Clear Clear  
Wind Chill:   Ceiling: Unl
Heat Index: 10°   Visibility: 6mi
Dew Point: -4°   Wind: 4mph
Humidity: 52%   Direction: 190°S
Pressure: 30.59"   Gusts: NA
Location:  59.53°N, 45.47°E
Report Text: UWGG 252000Z 19002MPS CAVOK M12/M20 Q1036 NOSIG 18820042 RMKQFE770
Loading
Personal Weather Stations






























Interactive Weather Map New forecast layout! Learn more

10-Day Weather Forecast

Advertisements
Track Severe Weather on mobile